Time;durP1;ratioP1;P1;durP2;ratioP2;P2;SDS_P1;SDS_P2;PMS_P1;PMS_P2;Temp;Humidity;BMP_temperature;BMP_pressure;BME280_temperature;BME280_humidity;BME280_pressure;Samples;Min_cycle;Max_cycle;Signal;HPM_P1;HPM_P2
2021/08/12 00:03:35;;;;;;;3.95;3.25;;;;;;;18.29;85.73;96611.47;5273677;56;20123;-79
2021/08/12 00:08:38;;;;;;;10.00;3.65;;;;;;;18.11;85.50;96589.59;5264701;56;20121;-79
2021/08/12 00:13:40;;;;;;;5.45;3.70;;;;;;;18.14;85.89;96605.34;5275555;56;20814;-78
2021/08/12 00:18:43;;;;;;;3.67;3.38;;;;;;;18.32;85.78;96599.25;5276933;56;20116;-79
2021/08/12 00:23:46;;;;;;;4.53;3.28;;;;;;;18.23;85.66;96600.28;5280329;56;20124;-79
2021/08/12 00:28:48;;;;;;;5.32;3.22;;;;;;;18.08;85.94;96608.13;5270300;56;20107;-79
2021/08/12 00:33:50;;;;;;;6.00;3.70;;;;;;;18.05;85.99;96614.72;5279660;56;20133;-79
2021/08/12 00:38:53;;;;;;;5.57;3.03;;;;;;;17.92;86.71;96615.22;5269095;56;20116;-79
2021/08/12 00:43:55;;;;;;;3.85;3.42;;;;;;;17.91;86.10;96598.94;5279099;56;20112;-79
2021/08/12 00:48:58;;;;;;;4.30;3.50;;;;;;;18.13;85.81;96609.41;5269222;56;20127;-79
2021/08/12 00:54:01;;;;;;;10.90;3.40;;;;;;;17.78;86.48;96607.03;5266864;56;20184;-79
2021/08/12 00:59:03;;;;;;;4.03;3.20;;;;;;;17.59;87.27;96619.91;5267742;56;20270;-79
2021/08/12 01:04:06;;;;;;;5.95;3.38;;;;;;;17.74;87.34;96624.06;5268869;56;20174;-78
2021/08/12 01:09:37;;;;;;;7.22;3.58;;;;;;;17.78;87.01;96626.59;5280456;56;20125;-78
2021/08/12 01:15:04;;;;;;;3.80;2.97;;;;;;;17.76;86.72;96632.69;5268292;56;20116;-79
2021/08/12 01:20:06;;;;;;;7.45;3.50;;;;;;;17.62;87.25;96632.88;5276684;56;20120;-79
2021/08/12 01:25:13;;;;;;;6.05;3.20;;;;;;;17.78;86.64;96624.56;5275032;56;20130;-82
2021/08/12 01:30:23;;;;;;;3.55;3.10;;;;;;;17.61;87.53;96629.34;5274887;56;20678;-79
2021/08/12 01:35:28;;;;;;;3.95;3.03;;;;;;;17.40;87.72;96633.50;5274949;56;20143;-79
2021/08/12 01:40:33;;;;;;;4.45;3.65;;;;;;;17.50;87.93;96629.25;5274374;56;20124;-79
2021/08/12 01:45:35;;;;;;;3.30;3.10;;;;;;;17.25;87.97;96621.00;5274950;56;20128;-78
2021/08/12 01:50:38;;;;;;;5.70;3.63;;;;;;;17.35;87.49;96623.06;5272987;56;20131;-78
2021/08/12 01:55:41;;;;;;;3.80;3.42;;;;;;;17.17;88.03;96618.66;5272853;56;20665;-79
2021/08/12 02:00:47;;;;;;;3.63;3.08;;;;;;;17.31;87.72;96625.34;5263833;56;20597;-78
2021/08/12 02:05:51;;;;;;;5.03;3.42;;;;;;;17.27;87.11;96630.41;5274133;56;20846;-78
2021/08/12 02:10:53;;;;;;;5.88;4.07;;;;;;;17.05;87.96;96636.59;5273691;56;20696;-78
2021/08/12 02:15:55;;;;;;;4.75;3.92;;;;;;;17.20;86.87;96620.47;5271707;56;20142;-80
2021/08/12 02:21:07;;;;;;;6.53;3.72;;;;;;;17.03;87.42;96625.16;5271302;56;20125;-78
2021/08/12 02:26:14;;;;;;;4.57;4.05;;;;;;;16.85;88.37;96592.03;5268454;56;20585;-78
2021/08/12 02:31:19;;;;;;;8.68;3.70;;;;;;;16.86;88.72;96607.53;5269616;56;20128;-78
2021/08/12 02:36:22;;;;;;;4.85;3.65;;;;;;;17.03;87.98;96611.19;5258776;56;20250;-78
2021/08/12 02:41:26;;;;;;;4.70;4.03;;;;;;;16.96;87.89;96605.34;5290748;56;20115;-78
2021/08/12 02:46:30;;;;;;;7.57;3.92;;;;;;;16.88;88.15;96607.81;5273812;56;20124;-79
2021/08/12 02:51:35;;;;;;;4.40;4.00;;;;;;;16.87;88.01;96619.47;5276703;56;20281;-79
2021/08/12 02:56:37;;;;;;;4.55;4.13;;;;;;;16.82;88.70;96614.63;5266291;56;20124;-78
2021/08/12 03:01:41;;;;;;;6.40;4.15;;;;;;;16.75;88.32;96606.69;5257791;56;20261;-79
2021/08/12 03:06:45;;;;;;;7.70;4.15;;;;;;;16.67;88.90;96602.84;5272607;56;20217;-79
2021/08/12 03:11:49;;;;;;;5.07;3.72;;;;;;;16.71;88.50;96609.72;5271905;56;20130;-79
2021/08/12 03:16:52;;;;;;;6.88;4.05;;;;;;;16.54;89.29;96613.63;5271811;56;20133;-79
2021/08/12 03:22:14;;;;;;;6.95;3.58;;;;;;;16.55;88.48;96618.72;5261541;56;20120;-79
2021/08/12 03:27:16;;;;;;;7.97;3.63;;;;;;;16.42;89.75;96624.66;5271579;56;20116;-79
2021/08/12 03:32:20;;;;;;;8.00;4.40;;;;;;;16.39;89.24;96614.50;5270191;56;20112;-79
2021/08/12 03:37:22;;;;;;;4.82;3.67;;;;;;;16.36;89.38;96614.72;5270862;56;20633;-79
2021/08/12 03:42:25;;;;;;;4.05;3.67;;;;;;;16.29;89.41;96601.22;5277928;56;20128;-79
2021/08/12 03:47:27;;;;;;;6.05;3.65;;;;;;;16.35;89.13;96610.41;5272993;56;20129;-79
2021/08/12 03:52:29;;;;;;;4.30;3.90;;;;;;;16.32;89.47;96617.72;5271774;56;20116;-78
2021/08/12 03:57:32;;;;;;;6.30;3.65;;;;;;;16.25;89.18;96592.31;5272171;56;20147;-79
2021/08/12 04:02:34;;;;;;;4.68;3.50;;;;;;;16.47;88.52;96623.94;5262371;56;20112;-78
2021/08/12 04:07:37;;;;;;;7.32;4.07;;;;;;;16.57;87.36;96621.78;5272156;56;20116;-79
2021/08/12 04:12:39;;;;;;;6.40;3.55;;;;;;;16.42;87.76;96616.28;5271927;56;20121;-78
2021/08/12 04:17:42;;;;;;;5.13;3.80;;;;;;;16.47;88.07;96618.38;5262283;56;20120;-78
2021/08/12 04:22:44;;;;;;;6.72;4.07;;;;;;;16.39;88.03;96619.31;5273809;56;20226;-78
2021/08/12 04:27:47;;;;;;;4.75;4.22;;;;;;;16.28;88.79;96619.22;5273184;56;20593;-78
2021/08/12 04:32:50;;;;;;;7.63;3.95;;;;;;;16.42;88.65;96609.94;5275178;56;20243;-78
2021/08/12 04:37:53;;;;;;;4.93;4.20;;;;;;;16.48;88.75;96619.13;5273600;56;20118;-79
2021/08/12 04:42:56;;;;;;;6.05;3.75;;;;;;;16.55;88.14;96621.50;5271676;56;20129;-78
2021/08/12 04:48:01;;;;;;;7.30;4.40;;;;;;;16.61;88.48;96625.09;5271464;56;20164;-78
2021/08/12 04:53:03;;;;;;;4.72;4.03;;;;;;;16.80;87.53;96622.72;5271463;56;20133;-78
2021/08/12 04:58:06;;;;;;;6.97;4.05;;;;;;;16.87;87.40;96636.22;5273842;56;20193;-79
2021/08/12 05:03:08;;;;;;;5.68;4.05;;;;;;;16.90;87.16;96640.81;5271630;56;20116;-79
2021/08/12 05:08:11;;;;;;;9.65;5.28;;;;;;;17.04;87.91;96642.69;5260930;56;20222;-79
2021/08/12 05:13:14;;;;;;;6.88;4.65;;;;;;;17.09;87.67;96631.56;5261286;56;20120;-79
2021/08/12 05:18:16;;;;;;;6.20;5.05;;;;;;;17.25;88.18;96632.16;5259706;56;20553;-79
2021/08/12 05:23:18;;;;;;;9.68;5.10;;;;;;;17.52;88.76;96620.41;5267691;56;20213;-78
2021/08/12 05:28:21;;;;;;;10.90;5.82;;;;;;;17.69;88.25;96627.59;5266790;56;20766;-78
2021/08/12 05:33:23;;;;;;;11.07;6.20;;;;;;;17.86;88.18;96613.69;5266540;56;20120;-78
2021/08/12 05:38:25;;;;;;;11.13;6.20;;;;;;;18.09;88.13;96631.28;5268979;56;20156;-78
2021/08/12 05:43:28;;;;;;;7.60;6.00;;;;;;;18.35;88.22;96629.03;5275682;56;20138;-78
2021/08/12 05:48:31;;;;;;;8.40;6.18;;;;;;;18.53;87.92;96620.94;5276071;56;20120;-81
2021/08/12 05:53:33;;;;;;;12.25;6.65;;;;;;;18.83;86.39;96640.81;5276709;56;20133;-80
2021/08/12 05:58:38;;;;;;;12.13;6.70;;;;;;;18.97;86.45;96636.22;5262201;56;20155;-78
2021/08/12 06:03:41;;;;;;;11.30;6.47;;;;;;;19.10;85.63;96642.84;5267374;56;20875;-78
2021/08/12 06:08:44;;;;;;;8.32;6.43;;;;;;;19.19;85.64;96631.34;5269209;56;20116;-78
2021/08/12 06:13:46;;;;;;;9.45;6.60;;;;;;;19.49;86.32;96665.22;5270300;56;20594;-78
2021/08/12 06:18:48;;;;;;;7.45;6.50;;;;;;;19.72;84.52;96661.06;5288973;56;20751;-79
2021/08/12 06:23:51;;;;;;;13.15;7.55;;;;;;;19.97;83.64;96665.53;5274243;56;20274;-77
2021/08/12 06:28:54;;;;;;;13.77;7.28;;;;;;;20.18;82.94;96660.34;5262734;56;20107;-77
2021/08/12 06:33:56;;;;;;;10.43;6.75;;;;;;;20.20;83.20;96657.78;5262727;56;20116;-76
2021/08/12 06:39:00;;;;;;;11.23;6.72;;;;;;;20.36;82.41;96653.38;5263483;56;20129;-75
2021/08/12 06:44:02;;;;;;;8.07;6.88;;;;;;;20.68;81.80;96665.69;5262628;56;20115;-76
2021/08/12 06:49:07;;;;;;;10.02;7.82;;;;;;;20.99;81.24;96665.19;5262655;56;20139;-76
2021/08/12 06:54:09;;;;;;;12.00;7.75;;;;;;;21.15;79.01;96669.94;5263052;56;20120;-76
2021/08/12 06:59:12;;;;;;;12.40;7.65;;;;;;;21.60;78.28;96678.69;5262934;56;20199;-78
2021/08/12 07:04:14;;;;;;;12.68;7.85;;;;;;;21.75;76.81;96676.25;5258504;56;20642;-79
2021/08/12 07:09:16;;;;;;;15.55;8.20;;;;;;;22.02;75.83;96677.25;5260213;56;20134;-78
2021/08/12 07:14:18;;;;;;;12.93;8.18;;;;;;;22.28;73.76;96679.47;5259274;56;20120;-78
2021/08/12 07:19:21;;;;;;;10.77;7.82;;;;;;;22.76;73.46;96685.72;5261363;56;20142;-78
2021/08/12 07:24:25;;;;;;;12.50;7.68;;;;;;;23.52;69.68;96675.78;5260527;56;20587;-78
2021/08/12 07:29:27;;;;;;;11.93;7.63;;;;;;;23.68;70.46;96674.72;5263668;56;20134;-78
2021/08/12 07:34:30;;;;;;;13.18;8.35;;;;;;;23.80;69.65;96676.03;5255325;56;20130;-79
2021/08/12 07:39:32;;;;;;;11.88;8.10;;;;;;;23.72;68.20;96686.47;5260798;56;20151;-78
2021/08/12 07:44:35;;;;;;;11.13;8.80;;;;;;;23.53;69.21;96685.75;5264050;56;20648;-78
2021/08/12 07:49:37;;;;;;;14.50;8.98;;;;;;;23.64;69.10;96677.09;5261514;56;20125;-78
2021/08/12 07:54:40;;;;;;;13.48;8.55;;;;;;;23.84;68.45;96676.44;5264027;56;20140;-79
2021/08/12 07:59:42;;;;;;;12.13;8.13;;;;;;;24.29;66.19;96675.59;5257719;56;20220;-79
2021/08/12 08:04:46;;;;;;;13.65;8.80;;;;;;;24.80;63.80;96683.19;5263319;56;20129;-79
2021/08/12 08:09:49;;;;;;;13.90;8.55;;;;;;;25.09;61.84;96674.81;5259217;56;20682;-79
2021/08/12 08:14:51;;;;;;;13.63;8.00;;;;;;;25.18;62.71;96686.41;5261292;56;20230;-81
2021/08/12 08:19:56;;;;;;;11.77;8.05;;;;;;;25.93;60.69;96680.59;5264790;56;20138;-79
2021/08/12 08:24:58;;;;;;;9.23;7.35;;;;;;;25.85;59.93;96690.38;5265484;56;20120;-80
2021/08/12 08:30:01;;;;;;;10.18;7.35;;;;;;;26.92;56.05;96682.59;5266568;56;20111;-81
2021/08/12 08:35:04;;;;;;;9.68;7.07;;;;;;;27.79;53.85;96690.84;5263672;56;20112;-80
2021/08/12 08:40:07;;;;;;;11.63;6.80;;;;;;;28.55;52.20;96688.56;5276810;56;20132;-79
2021/08/12 08:45:10;;;;;;;11.25;7.63;;;;;;;28.84;48.22;96686.19;5275501;56;20117;-78
2021/08/12 08:50:17;;;;;;;9.88;7.10;;;;;;;29.05;50.35;96692.34;5269922;56;20125;-77
2021/08/12 08:55:23;;;;;;;9.13;6.38;;;;;;;30.53;46.74;96686.53;5263054;56;20129;-78
2021/08/12 09:00:27;;;;;;;7.88;6.38;;;;;;;30.82;48.06;96684.66;5266298;56;20121;-79
2021/08/12 09:05:31;;;;;;;10.75;6.88;;;;;;;29.98;48.08;96674.75;5264656;56;21184;-78
2021/08/12 09:10:33;;;;;;;9.55;5.90;;;;;;;29.75;50.32;96666.44;5268221;56;20139;-77
2021/08/12 09:15:41;;;;;;;13.32;5.40;;;;;;;30.75;50.23;96662.69;5263298;56;20743;-78
2021/08/12 09:20:45;;;;;;;6.68;5.10;;;;;;;31.49;46.19;96672.88;5253816;56;20661;-77
2021/08/12 09:25:50;;;;;;;6.50;5.38;;;;;;;31.89;46.44;96673.13;5262070;56;20116;-76
2021/08/12 09:30:58;;;;;;;9.02;5.93;;;;;;;31.56;43.77;96664.19;5261460;56;20166;-77
2021/08/12 09:36:02;;;;;;;9.43;6.20;;;;;;;30.55;47.41;96651.72;5262699;56;20126;-77
2021/08/12 09:41:08;;;;;;;10.88;5.60;;;;;;;30.88;48.46;96655.84;5258002;56;20616;-77
2021/08/12 09:46:15;;;;;;;10.07;5.47;;;;;;;31.54;47.66;96654.69;5262549;56;20124;-78
2021/08/12 09:51:28;;;;;;;8.20;6.20;;;;;;;31.26;45.50;96656.06;5279146;56;20748;-80
2021/08/12 09:56:31;;;;;;;9.32;5.60;;;;;;;31.92;44.39;96659.75;5304275;56;20116;-81
2021/08/12 10:01:33;;;;;;;8.60;5.88;;;;;;;31.97;44.67;96662.34;5272830;56;20152;-77
2021/08/12 10:06:36;;;;;;;9.77;5.82;;;;;;;31.00;45.61;96657.59;5267267;56;20218;-76
2021/08/12 10:11:40;;;;;;;9.45;5.80;;;;;;;31.16;48.30;96663.84;5269445;56;20134;-76
2021/08/12 10:16:42;;;;;;;12.13;5.72;;;;;;;30.75;47.13;96659.06;5252534;56;20125;-76
2021/08/12 10:21:45;;;;;;;9.80;6.03;;;;;;;30.79;45.35;96657.28;5263177;56;20133;-75
2021/08/12 10:26:50;;;;;;;6.55;5.82;;;;;;;32.29;44.25;96659.09;5274391;56;20125;-76
2021/08/12 10:31:54;;;;;;;13.40;6.50;;;;;;;33.05;40.28;96660.41;5267094;56;20635;-76
2021/08/12 10:36:57;;;;;;;7.72;5.20;;;;;;;33.13;40.27;96647.41;5261438;56;20202;-76
2021/08/12 10:42:00;;;;;;;5.57;5.03;;;;;;;32.91;39.29;96645.78;5259534;56;20138;-76
2021/08/12 10:47:02;;;;;;;7.80;5.35;;;;;;;32.38;38.29;96649.75;5260197;56;20129;-76
2021/08/12 10:52:06;;;;;;;7.20;5.22;;;;;;;33.10;39.12;96640.03;5262722;56;20121;-76
2021/08/12 10:57:17;;;;;;;6.57;5.43;;;;;;;31.91;39.87;96636.16;5267963;56;20138;-76
2021/08/12 11:02:30;;;;;;;9.80;4.70;;;;;;;32.56;38.95;96630.34;5261990;56;20120;-76
2021/08/12 11:07:36;;;;;;;8.25;5.20;;;;;;;33.39;38.46;96631.31;5267125;56;20107;-76
2021/08/12 11:12:53;;;;;;;6.13;4.78;;;;;;;33.00;38.61;96618.47;5262173;56;20635;-76
2021/08/12 11:17:59;;;;;;;9.00;5.03;;;;;;;34.71;33.98;96615.22;5262518;56;20210;-74
2021/08/12 11:23:17;;;;;;;6.30;5.03;;;;;;;35.24;36.88;96620.84;5260793;56;20120;-73
2021/08/12 11:28:50;;;;;;;7.38;5.20;;;;;;;35.05;34.08;96626.06;5272054;56;20115;-71
2021/08/12 11:34:01;;;;;;;6.35;5.10;;;;;;;34.66;33.53;96608.47;5273798;56;20137;-73
2021/08/12 11:39:04;;;;;;;6.20;4.53;;;;;;;34.77;35.57;96598.38;5267022;56;20146;-72
2021/08/12 11:44:15;;;;;;;7.65;4.53;;;;;;;34.54;34.37;96611.28;5261324;56;20120;-73
2021/08/12 11:49:18;;;;;;;9.52;4.82;;;;;;;34.96;35.89;96607.53;5261765;56;20116;-73
2021/08/12 11:54:26;;;;;;;6.50;4.47;;;;;;;34.92;32.71;96612.28;5262760;56;20142;-73
2021/08/12 11:59:30;;;;;;;5.72;4.97;;;;;;;35.17;35.47;96604.59;5261368;56;20120;-74
2021/08/12 12:04:32;;;;;;;5.97;4.50;;;;;;;34.56;33.62;96605.66;5277869;56;20217;-74
2021/08/12 12:09:35;;;;;;;6.82;4.80;;;;;;;34.88;34.01;96600.50;5274018;56;20116;-74
2021/08/12 12:14:43;;;;;;;5.10;4.28;;;;;;;34.95;35.86;96594.53;5274337;56;20124;-75
2021/08/12 12:20:03;;;;;;;5.38;4.90;;;;;;;34.32;33.87;96594.69;5261717;56;20123;-75
2021/08/12 12:25:08;;;;;;;6.72;4.50;;;;;;;34.94;35.51;96595.91;5265296;56;20688;-75
2021/08/12 12:30:12;;;;;;;5.55;4.85;;;;;;;34.54;34.85;96591.19;5258160;56;20121;-75
2021/08/12 12:35:15;;;;;;;6.55;5.10;;;;;;;33.65;34.64;96583.72;5266585;56;20120;-76
2021/08/12 12:40:20;;;;;;;9.40;4.53;;;;;;;33.97;37.96;96585.16;5277094;56;20790;-76
2021/08/12 12:45:23;;;;;;;8.70;5.07;;;;;;;34.21;36.14;96581.81;5285570;56;20122;-75
2021/08/12 12:50:25;;;;;;;6.97;5.03;;;;;;;34.00;34.20;96578.94;5285387;56;20879;-75
2021/08/12 12:55:32;;;;;;;5.15;4.65;;;;;;;34.39;38.24;96583.00;5285292;56;20116;-76
2021/08/12 13:00:35;;;;;;;6.88;4.88;;;;;;;34.78;35.77;96568.28;5276878;56;20160;-75
2021/08/12 13:05:54;;;;;;;10.40;5.30;;;;;;;34.87;36.70;96571.06;5263713;56;20221;-74
2021/08/12 13:11:10;;;;;;;5.43;4.85;;;;;;;34.64;35.69;96576.75;5265465;56;20116;-74
2021/08/12 13:16:16;;;;;;;5.65;4.88;;;;;;;35.07;35.24;96568.72;5262034;56;20138;-75
2021/08/12 13:21:27;;;;;;;6.35;4.80;;;;;;;35.02;33.07;96570.59;5263778;56;20685;-74
2021/08/12 13:26:34;;;;;;;7.88;5.07;;;;;;;34.24;34.72;96563.34;5252789;56;20235;-74
2021/08/12 13:31:51;;;;;;;7.78;4.82;;;;;;;34.15;34.89;96560.59;5265774;56;20116;-75
2021/08/12 13:36:55;;;;;;;;;;;;;;;33.54;34.70;96562.19;5259997;56;20585;-74
2021/08/12 13:42:09;;;;;;;6.88;5.07;;;;;;;33.32;36.82;96563.50;5266810;56;19981;-75
2021/08/12 13:47:11;;;;;;;7.63;4.72;;;;;;;33.76;38.74;96555.13;5279843;56;20115;-74
2021/08/12 13:52:13;;;;;;;7.00;4.82;;;;;;;33.54;38.11;96550.00;5250265;56;20937;-74
2021/08/12 13:57:16;;;;;;;6.38;4.72;;;;;;;33.51;36.43;96551.94;5257040;56;20111;-74
2021/08/12 14:02:19;;;;;;;6.07;5.15;;;;;;;33.21;37.21;96547.72;5263157;56;20126;-75
2021/08/12 14:07:22;;;;;;;7.57;5.07;;;;;;;34.30;36.82;96555.16;5263026;56;20142;-74
2021/08/12 14:12:25;;;;;;;6.72;5.10;;;;;;;34.29;35.75;96547.13;5284188;56;20123;-76
2021/08/12 14:17:27;;;;;;;5.32;4.75;;;;;;;34.57;34.21;96549.00;5269320;56;20142;-74
2021/08/12 14:22:34;;;;;;;9.68;4.80;;;;;;;34.72;34.41;96545.66;5271113;46;20705;31
2021/08/12 14:27:37;;;;;;;;;;;;;;;35.26;35.72;96549.13;5262408;56;20121;-74
2021/08/12 14:32:40;;;;;;;5.45;4.90;;;;;;;34.57;35.14;96549.00;5255541;56;19973;-73
2021/08/12 14:37:42;;;;;;;8.63;4.88;;;;;;;34.72;35.17;96539.19;5244857;56;20135;-74
2021/08/12 14:42:45;;;;;;;6.57;4.85;;;;;;;34.21;34.99;96538.00;5257476;56;20125;-75
2021/08/12 14:47:48;;;;;;;7.72;5.25;;;;;;;33.75;37.01;96530.66;5240496;56;20156;-77
2021/08/12 14:52:50;;;;;;;7.05;4.85;;;;;;;33.65;37.22;96529.97;5241376;56;20661;-76
2021/08/12 14:57:53;;;;;;;8.85;5.13;;;;;;;33.46;35.92;96532.97;5241896;56;20121;-75
2021/08/12 15:02:55;;;;;;;7.40;4.93;;;;;;;33.58;36.16;96528.09;5241313;56;20126;-76
2021/08/12 15:07:58;;;;;;;6.20;4.50;;;;;;;33.66;37.09;96531.50;5240636;56;20826;-77
2021/08/12 15:13:01;;;;;;;6.13;4.68;;;;;;;34.10;35.93;96527.25;5235016;56;20749;-75
2021/08/12 15:18:05;;;;;;;8.25;4.43;;;;;;;34.09;36.80;96517.88;5239373;56;20126;-75
2021/08/12 15:23:07;;;;;;;8.00;4.85;;;;;;;33.51;35.56;96525.38;5232932;56;20130;-74
2021/08/12 15:28:10;;;;;;;9.60;4.90;;;;;;;32.79;38.14;96515.34;5233792;56;20698;-77
2021/08/12 15:33:14;;;;;;;6.55;5.45;;;;;;;32.15;36.33;96509.31;5233510;56;20139;-75
2021/08/12 15:38:16;;;;;;;5.93;4.85;;;;;;;32.20;40.74;96513.97;5234383;56;20109;-75
2021/08/12 15:43:19;;;;;;;7.07;4.68;;;;;;;31.98;37.14;96520.16;5231765;56;20121;-75
2021/08/12 15:48:21;;;;;;;8.43;5.18;;;;;;;31.50;39.39;96517.25;5233200;56;20126;-74
2021/08/12 15:53:24;;;;;;;10.55;4.93;;;;;;;31.44;40.17;96508.97;5239983;56;20134;-74
2021/08/12 15:58:26;;;;;;;8.50;4.70;;;;;;;31.34;39.34;96502.47;5241466;56;20126;-75
2021/08/12 16:03:28;;;;;;;6.97;5.47;;;;;;;30.86;40.66;96505.16;5241749;56;20130;-74
2021/08/12 16:08:31;;;;;;;5.43;4.93;;;;;;;31.08;40.71;96509.00;5241063;56;20654;-73
2021/08/12 16:13:37;;;;;;;7.35;5.03;;;;;;;31.02;41.44;96505.69;5242749;56;20196;-75
2021/08/12 16:18:39;;;;;;;5.55;4.70;;;;;;;30.86;40.89;96490.91;5240845;56;20117;-74
2021/08/12 16:23:52;;;;;;;13.38;4.97;;;;;;;30.65;43.08;96487.81;5241050;56;20125;-72
2021/08/12 16:28:54;;;;;;;5.25;4.75;;;;;;;30.69;41.72;96499.53;5234892;56;20109;-71
2021/08/12 16:33:56;;;;;;;10.52;4.82;;;;;;;30.49;43.67;96490.13;5234036;56;20127;-71
2021/08/12 16:39:00;;;;;;;6.57;5.03;;;;;;;30.32;44.64;96493.06;5231907;56;20130;-73
2021/08/12 16:44:03;;;;;;;6.05;4.78;;;;;;;30.44;44.16;96490.44;5231862;56;20585;-73
2021/08/12 16:49:05;;;;;;;7.35;4.75;;;;;;;30.13;45.36;96492.16;5237642;56;20577;-73
2021/08/12 16:54:08;;;;;;;9.60;4.90;;;;;;;30.13;43.77;96480.75;5230061;56;20131;-71
2021/08/12 16:59:10;;;;;;;7.45;4.90;;;;;;;29.99;42.86;96483.22;5230457;56;20104;-73
2021/08/12 17:04:12;;;;;;;6.53;4.63;;;;;;;29.77;45.11;96479.31;5234440;56;20118;-74
2021/08/12 17:09:15;;;;;;;6.93;5.03;;;;;;;29.60;47.11;96479.31;5237174;56;20587;-72
2021/08/12 17:14:17;;;;;;;9.43;5.40;;;;;;;29.46;46.95;96465.97;5232088;56;20118;-73
2021/08/12 17:19:20;;;;;;;8.45;5.13;;;;;;;29.28;46.52;96473.78;5242677;56;21275;-72
2021/08/12 17:24:22;;;;;;;6.18;4.90;;;;;;;29.17;49.35;96464.94;5241668;56;20117;-74
2021/08/12 17:29:25;;;;;;;6.45;5.18;;;;;;;28.76;50.75;96466.47;5243622;56;20122;-71
2021/08/12 17:34:30;;;;;;;7.90;5.25;;;;;;;28.66;50.47;96465.56;5244142;56;20242;-72
2021/08/12 17:39:33;;;;;;;6.65;4.78;;;;;;;28.41;52.04;96462.69;5240172;56;20140;-73
2021/08/12 17:44:35;;;;;;;7.15;5.15;;;;;;;28.22;51.02;96462.47;5231400;56;20659;-73
2021/08/12 17:49:42;;;;;;;6.22;5.10;;;;;;;27.97;54.36;96459.56;5240636;56;20148;-74
2021/08/12 17:54:44;;;;;;;6.90;4.97;;;;;;;27.66;57.78;96449.66;5234078;56;20116;-75
2021/08/12 17:59:46;;;;;;;8.52;4.90;;;;;;;27.27;58.96;96453.19;5233576;56;20697;-75
2021/08/12 18:04:49;;;;;;;6.43;5.10;;;;;;;27.13;60.65;96446.97;5238442;56;20108;-75
2021/08/12 18:09:54;;;;;;;9.77;5.85;;;;;;;26.73;60.84;96452.47;5237219;56;20112;-72
2021/08/12 18:14:56;;;;;;;6.57;5.25;;;;;;;26.52;60.39;96466.09;5230431;56;20127;-74
2021/08/12 18:19:59;;;;;;;14.43;5.35;;;;;;;26.34;62.05;96470.03;5239263;56;20132;-73
2021/08/12 18:25:03;;;;;;;10.13;5.10;;;;;;;26.11;61.57;96480.56;5230308;56;20114;-73
2021/08/12 18:30:07;;;;;;;9.43;5.28;;;;;;;25.86;63.60;96483.09;5234542;56;20166;-75
2021/08/12 18:35:09;;;;;;;6.90;5.13;;;;;;;25.67;65.95;96484.75;5233908;56;20657;-74
2021/08/12 18:40:13;;;;;;;21.48;5.97;;;;;;;25.61;67.63;96485.66;5231460;56;20126;-73
2021/08/12 18:45:16;;;;;;;17.15;5.60;;;;;;;25.19;69.19;96494.81;5239131;56;20117;-74
2021/08/12 18:50:19;;;;;;;11.90;6.13;;;;;;;24.89;70.71;96512.34;5242879;56;20143;-73
2021/08/12 18:55:23;;;;;;;14.38;6.00;;;;;;;24.74;71.01;96520.66;5242034;56;20122;-73
2021/08/12 19:00:25;;;;;;;21.63;6.13;;;;;;;24.53;71.81;96528.38;5242945;56;20148;-74
2021/08/12 19:05:27;;;;;;;39.58;8.18;;;;;;;24.20;72.78;96547.63;5242875;56;20117;-71
2021/08/12 19:10:30;;;;;;;64.10;8.55;;;;;;;24.11;73.40;96541.69;5247245;56;20113;-75
2021/08/12 19:15:32;;;;;;;40.38;7.75;;;;;;;23.96;74.32;96547.91;5242740;56;20121;-72
2021/08/12 19:20:35;;;;;;;33.20;8.07;;;;;;;24.06;74.17;96562.34;5237358;56;20117;-74
2021/08/12 19:25:38;;;;;;;11.95;5.90;;;;;;;23.79;76.06;96567.25;5231739;56;20112;-74
2021/08/12 19:30:40;;;;;;;11.57;5.68;;;;;;;23.64;76.33;96571.94;5243763;56;20130;-76
2021/08/12 19:35:43;;;;;;;20.48;6.25;;;;;;;23.44;77.83;96564.91;5237361;56;20121;-76
2021/08/12 19:40:45;;;;;;;64.88;8.70;;;;;;;23.45;77.42;96567.16;5234240;56;20592;-74
2021/08/12 19:45:47;;;;;;;46.75;8.52;;;;;;;23.19;78.55;96567.13;5232728;56;20662;-74
2021/08/12 19:50:53;;;;;;;33.25;8.02;;;;;;;23.19;79.07;96558.69;5238477;56;20108;-75
2021/08/12 19:55:55;;;;;;;27.73;6.25;;;;;;;22.99;79.75;96561.34;5241136;56;20121;-75
2021/08/12 20:00:58;;;;;;;29.48;7.13;;;;;;;23.07;79.37;96565.81;5241204;56;20139;-75
2021/08/12 20:06:00;;;;;;;23.65;6.15;;;;;;;22.96;79.93;96574.47;5226920;56;20162;-75
2021/08/12 20:11:06;;;;;;;34.30;8.57;;;;;;;23.10;79.33;96572.44;5228774;56;20126;-76
2021/08/12 20:16:09;;;;;;;24.92;8.48;;;;;;;22.89;79.56;96565.91;5219355;56;20645;-75
2021/08/12 20:21:11;;;;;;;35.90;9.23;;;;;;;22.65;80.26;96559.13;5219513;56;20136;-71
2021/08/12 20:26:14;;;;;;;37.00;7.70;;;;;;;22.48;81.35;96552.94;5219513;56;20131;-73
2021/08/12 20:31:16;;;;;;;29.63;7.50;;;;;;;22.60;80.68;96562.78;5219836;56;20131;-73
2021/08/12 20:36:19;;;;;;;17.85;5.97;;;;;;;22.61;81.12;96564.31;5220431;56;20118;-75
2021/08/12 20:41:21;;;;;;;11.90;6.40;;;;;;;22.37;81.96;96570.03;5223423;56;20136;-75
2021/08/12 20:46:23;;;;;;;11.23;6.72;;;;;;;22.09;82.78;96570.44;5221611;56;20113;-72
2021/08/12 20:51:27;;;;;;;11.45;6.32;;;;;;;22.02;82.67;96571.06;5237422;56;20281;-74
2021/08/12 20:56:36;;;;;;;8.45;6.28;;;;;;;21.99;82.86;96583.38;5239660;56;20246;-74
2021/08/12 21:01:39;;;;;;;9.80;6.57;;;;;;;21.88;83.42;96579.94;5222435;56;20197;-74
2021/08/12 21:06:41;;;;;;;17.67;6.57;;;;;;;21.73;83.84;96571.16;5222618;56;20166;-74
2021/08/12 21:11:43;;;;;;;8.15;6.07;;;;;;;21.79;84.17;96575.44;5223118;56;20122;-75
2021/08/12 21:16:46;;;;;;;10.43;6.00;;;;;;;21.63;84.06;96570.00;5222643;56;20113;-74
2021/08/12 21:21:48;;;;;;;11.38;6.82;;;;;;;21.40;84.39;96572.31;5223258;56;20122;-74
2021/08/12 21:26:50;;;;;;;9.52;6.53;;;;;;;21.54;84.17;96561.94;5223052;56;20130;-72
2021/08/12 21:31:54;;;;;;;9.63;6.10;;;;;;;21.38;85.21;96572.09;5227035;56;20109;-73
2021/08/12 21:36:57;;;;;;;6.88;5.82;;;;;;;21.35;84.88;96570.31;5556841;45;20168;-74
2021/08/12 21:41:59;;;;;;;9.98;6.30;;;;;;;21.14;84.86;96564.44;5263746;56;20120;-74
2021/08/12 21:47:02;;;;;;;13.35;6.82;;;;;;;21.18;85.04;96578.97;5263216;56;20116;-74
2021/08/12 21:52:05;;;;;;;11.20;6.53;;;;;;;21.12;84.90;96583.84;5263973;56;20120;-74
2021/08/12 21:57:07;;;;;;;10.20;6.28;;;;;;;21.07;85.05;96579.06;5249984;56;20122;-74
2021/08/12 22:02:10;;;;;;;12.52;6.13;;;;;;;21.31;84.03;96586.72;5260460;56;20138;-74
2021/08/12 22:07:12;;;;;;;9.45;6.03;;;;;;;21.15;85.08;96605.28;5263504;56;20121;-74
2021/08/12 22:12:15;;;;;;;10.77;6.63;;;;;;;21.07;84.43;96601.56;5262768;56;20094;-74
2021/08/12 22:17:17;;;;;;;10.77;7.10;;;;;;;21.06;84.79;96600.03;5252807;56;20133;-73
2021/08/12 22:22:20;;;;;;;9.60;6.07;;;;;;;21.14;84.91;96612.22;5239019;56;20749;-74
2021/08/12 22:27:22;;;;;;;10.45;6.43;;;;;;;20.92;85.82;96609.56;5243447;56;20555;-74
2021/08/12 22:32:24;;;;;;;8.73;6.07;;;;;;;20.81;85.88;96620.91;5255548;56;20222;-73
2021/08/12 22:37:27;;;;;;;12.73;6.55;;;;;;;20.61;86.68;96622.09;5242392;56;20122;-74
2021/08/12 22:42:29;;;;;;;8.07;5.85;;;;;;;20.65;86.79;96624.59;5242328;56;20108;-74
2021/08/12 22:47:32;;;;;;;8.55;6.05;;;;;;;20.82;85.77;96630.88;5244933;56;20094;-74
2021/08/12 22:52:35;;;;;;;7.55;6.03;;;;;;;20.99;85.21;96625.84;5245603;56;20156;-73
2021/08/12 22:57:38;;;;;;;10.18;6.80;;;;;;;20.85;85.21;96610.13;5230743;56;20277;-74
2021/08/12 23:02:41;;;;;;;9.25;6.15;;;;;;;20.61;85.89;96619.28;5268423;56;20113;-74
2021/08/12 23:07:44;;;;;;;7.47;6.47;;;;;;;20.57;86.75;96613.19;5238030;56;20117;-73
2021/08/12 23:12:47;;;;;;;15.70;6.80;;;;;;;20.78;85.30;96613.53;5242703;56;20113;-73
2021/08/12 23:17:52;;;;;;;13.50;7.15;;;;;;;20.82;84.76;96607.63;5225116;56;20126;-73
2021/08/12 23:22:54;;;;;;;8.70;6.72;;;;;;;20.62;85.38;96611.63;5233947;56;20672;-74
2021/08/12 23:27:57;;;;;;;8.48;6.53;;;;;;;20.41;86.56;96614.06;5227589;56;20645;-74
2021/08/12 23:32:59;;;;;;;9.85;6.68;;;;;;;20.27;87.24;96609.56;5230080;56;20234;-73
2021/08/12 23:38:02;;;;;;;14.35;7.13;;;;;;;20.35;86.60;96604.16;5229590;56;20116;-73
2021/08/12 23:43:05;;;;;;;9.85;6.68;;;;;;;20.57;86.02;96609.59;5230106;56;20117;-74
2021/08/12 23:48:07;;;;;;;7.97;7.18;;;;;;;20.41;87.05;96608.44;5232479;56;20658;-74